sensor_id;sensor_type;location;lat;lon;timestamp;pressure;altitude;pressure_sealevel;temperature
15680;BMP180;15488;48.114;11.532;2022-10-13T00:01:30;95884.00;;;18.20
15680;BMP180;15488;48.114;11.532;2022-10-13T00:03:57;95885.00;;;18.20
15680;BMP180;15488;48.114;11.532;2022-10-13T00:06:25;95876.00;;;18.20
15680;BMP180;15488;48.114;11.532;2022-10-13T00:08:53;95879.00;;;18.20
15680;BMP180;15488;48.114;11.532;2022-10-13T00:11:23;95876.00;;;18.10
15680;BMP180;15488;48.114;11.532;2022-10-13T00:13:56;95872.00;;;18.10
15680;BMP180;15488;48.114;11.532;2022-10-13T00:16:24;95862.00;;;18.10
15680;BMP180;15488;48.114;11.532;2022-10-13T00:18:51;95866.00;;;18.10
15680;BMP180;15488;48.114;11.532;2022-10-13T00:21:21;95869.00;;;18.10
15680;BMP180;15488;48.114;11.532;2022-10-13T00:23:49;95870.00;;;18.10
15680;BMP180;15488;48.114;11.532;2022-10-13T00:26:17;95872.00;;;18.10
15680;BMP180;15488;48.114;11.532;2022-10-13T00:28:45;95871.00;;;18.10
15680;BMP180;15488;48.114;11.532;2022-10-13T00:31:19;95869.00;;;18.00
15680;BMP180;15488;48.114;11.532;2022-10-13T00:33:46;95871.00;;;18.00
15680;BMP180;15488;48.114;11.532;2022-10-13T00:36:15;95870.00;;;18.00
15680;BMP180;15488;48.114;11.532;2022-10-13T00:38:43;95877.00;;;18.00
15680;BMP180;15488;48.114;11.532;2022-10-13T00:41:10;95872.00;;;18.00
15680;BMP180;15488;48.114;11.532;2022-10-13T00:43:56;95875.00;;;18.00
15680;BMP180;15488;48.114;11.532;2022-10-13T00:46:26;95871.00;;;18.00
15680;BMP180;15488;48.114;11.532;2022-10-13T00:48:54;95868.00;;;18.00
15680;BMP180;15488;48.114;11.532;2022-10-13T00:51:26;95863.00;;;18.00
15680;BMP180;15488;48.114;11.532;2022-10-13T00:53:55;95866.00;;;18.00
15680;BMP180;15488;48.114;11.532;2022-10-13T00:56:25;95867.00;;;17.90
15680;BMP180;15488;48.114;11.532;2022-10-13T00:58:55;95864.00;;;17.90
15680;BMP180;15488;48.114;11.532;2022-10-13T01:01:24;95861.00;;;17.90
15680;BMP180;15488;48.114;11.532;2022-10-13T01:03:51;95854.00;;;17.90
15680;BMP180;15488;48.114;11.532;2022-10-13T01:06:19;95854.00;;;17.90
15680;BMP180;15488;48.114;11.532;2022-10-13T01:08:47;95859.00;;;17.90
15680;BMP180;15488;48.114;11.532;2022-10-13T01:11:31;95861.00;;;17.90
15680;BMP180;15488;48.114;11.532;2022-10-13T01:14:09;95862.00;;;17.90
15680;BMP180;15488;48.114;11.532;2022-10-13T01:16:47;95862.00;;;17.90
15680;BMP180;15488;48.114;11.532;2022-10-13T01:19:49;95860.00;;;17.90
15680;BMP180;15488;48.114;11.532;2022-10-13T01:22:33;95858.00;;;17.90
15680;BMP180;15488;48.114;11.532;2022-10-13T01:25:10;95853.00;;;17.90
15680;BMP180;15488;48.114;11.532;2022-10-13T01:30:53;95858.00;;;17.90
15680;BMP180;15488;48.114;11.532;2022-10-13T01:33:31;95864.00;;;17.90
15680;BMP180;15488;48.114;11.532;2022-10-13T01:36:06;95862.00;;;17.80
15680;BMP180;15488;48.114;11.532;2022-10-13T01:38:41;95856.00;;;17.80
15680;BMP180;15488;48.114;11.532;2022-10-13T01:41:13;95860.00;;;17.60
15680;BMP180;15488;48.114;11.532;2022-10-13T01:43:46;95857.00;;;17.80
15680;BMP180;15488;48.114;11.532;2022-10-13T01:46:20;95867.00;;;17.80
15680;BMP180;15488;48.114;11.532;2022-10-13T01:48:50;95868.00;;;17.80
15680;BMP180;15488;48.114;11.532;2022-10-13T01:51:21;95869.00;;;17.80
15680;BMP180;15488;48.114;11.532;2022-10-13T01:53:51;95869.00;;;17.80
15680;BMP180;15488;48.114;11.532;2022-10-13T01:56:18;95872.00;;;17.70
15680;BMP180;15488;48.114;11.532;2022-10-13T01:58:47;95869.00;;;17.70
15680;BMP180;15488;48.114;11.532;2022-10-13T02:01:35;95864.00;;;17.70
15680;BMP180;15488;48.114;11.532;2022-10-13T02:04:13;95869.00;;;17.70
15680;BMP180;15488;48.114;11.532;2022-10-13T02:06:46;95861.00;;;17.70
15680;BMP180;15488;48.114;11.532;2022-10-13T02:09:22;95866.00;;;17.60
15680;BMP180;15488;48.114;11.532;2022-10-13T02:11:56;95861.00;;;17.60
15680;BMP180;15488;48.114;11.532;2022-10-13T02:14:26;95863.00;;;17.60
15680;BMP180;15488;48.114;11.532;2022-10-13T02:17:00;95869.00;;;17.60
15680;BMP180;15488;48.114;11.532;2022-10-13T02:19:29;95872.00;;;17.50
15680;BMP180;15488;48.114;11.532;2022-10-13T02:21:59;95870.00;;;17.50
15680;BMP180;15488;48.114;11.532;2022-10-13T02:24:27;95878.00;;;17.50
15680;BMP180;15488;48.114;11.532;2022-10-13T02:26:54;95874.00;;;17.50
15680;BMP180;15488;48.114;11.532;2022-10-13T02:29:23;95874.00;;;17.50
15680;BMP180;15488;48.114;11.532;2022-10-13T02:31:50;95882.00;;;17.40
15680;BMP180;15488;48.114;11.532;2022-10-13T02:34:21;95871.00;;;17.40
15680;BMP180;15488;48.114;11.532;2022-10-13T02:36:48;95816.00;;;17.40
15680;BMP180;15488;48.114;11.532;2022-10-13T02:39:16;95872.00;;;17.40
15680;BMP180;15488;48.114;11.532;2022-10-13T02:41:43;95873.00;;;17.40
15680;BMP180;15488;48.114;11.532;2022-10-13T02:44:11;95867.00;;;17.40
15680;BMP180;15488;48.114;11.532;2022-10-13T02:46:38;95867.00;;;17.40
15680;BMP180;15488;48.114;11.532;2022-10-13T02:49:06;95859.00;;;17.40
15680;BMP180;15488;48.114;11.532;2022-10-13T02:51:35;95860.00;;;17.40
15680;BMP180;15488;48.114;11.532;2022-10-13T02:54:02;95861.00;;;17.40
15680;BMP180;15488;48.114;11.532;2022-10-13T02:56:29;95862.00;;;17.40
15680;BMP180;15488;48.114;11.532;2022-10-13T02:58:57;95865.00;;;17.40
15680;BMP180;15488;48.114;11.532;2022-10-13T03:01:24;95869.00;;;17.30
15680;BMP180;15488;48.114;11.532;2022-10-13T03:03:52;95863.00;;;17.30
15680;BMP180;15488;48.114;11.532;2022-10-13T03:06:19;95863.00;;;17.30
15680;BMP180;15488;48.114;11.532;2022-10-13T03:08:48;95855.00;;;17.30
15680;BMP180;15488;48.114;11.532;2022-10-13T03:11:16;95845.00;;;17.30
15680;BMP180;15488;48.114;11.532;2022-10-13T03:13:43;95850.00;;;17.30
15680;BMP180;15488;48.114;11.532;2022-10-13T03:16:11;95855.00;;;17.30
15680;BMP180;15488;48.114;11.532;2022-10-13T03:18:38;95853.00;;;17.20
15680;BMP180;15488;48.114;11.532;2022-10-13T03:21:06;95853.00;;;17.00
15680;BMP180;15488;48.114;11.532;2022-10-13T03:23:34;95847.00;;;17.20
15680;BMP180;15488;48.114;11.532;2022-10-13T03:26:03;95842.00;;;17.20
15680;BMP180;15488;48.114;11.532;2022-10-13T03:28:30;95842.00;;;17.20
15680;BMP180;15488;48.114;11.532;2022-10-13T03:31:02;95842.00;;;17.10
15680;BMP180;15488;48.114;11.532;2022-10-13T03:33:30;95843.00;;;17.10
15680;BMP180;15488;48.114;11.532;2022-10-13T03:35:58;95842.00;;;17.10
15680;BMP180;15488;48.114;11.532;2022-10-13T03:38:27;95840.00;;;17.10
15680;BMP180;15488;48.114;11.532;2022-10-13T03:40:54;95847.00;;;17.10
15680;BMP180;15488;48.114;11.532;2022-10-13T03:43:23;95846.00;;;17.10
15680;BMP180;15488;48.114;11.532;2022-10-13T03:45:54;95848.00;;;17.00
15680;BMP180;15488;48.114;11.532;2022-10-13T03:48:22;95860.00;;;17.00
15680;BMP180;15488;48.114;11.532;2022-10-13T03:50:50;95849.00;;;17.00
15680;BMP180;15488;48.114;11.532;2022-10-13T03:53:17;95855.00;;;17.00
15680;BMP180;15488;48.114;11.532;2022-10-13T03:55:49;95857.00;;;17.00
15680;BMP180;15488;48.114;11.532;2022-10-13T03:58:17;95860.00;;;17.00
15680;BMP180;15488;48.114;11.532;2022-10-13T04:00:46;95858.00;;;16.90
15680;BMP180;15488;48.114;11.532;2022-10-13T04:03:13;95866.00;;;16.90
15680;BMP180;15488;48.114;11.532;2022-10-13T04:05:41;95867.00;;;16.90
15680;BMP180;15488;48.114;11.532;2022-10-13T04:08:09;95858.00;;;16.90
15680;BMP180;15488;48.114;11.532;2022-10-13T04:10:36;95861.00;;;16.90
15680;BMP180;15488;48.114;11.532;2022-10-13T04:13:04;95869.00;;;16.90
15680;BMP180;15488;48.114;11.532;2022-10-13T04:15:35;95866.00;;;16.90
15680;BMP180;15488;48.114;11.532;2022-10-13T04:18:06;95869.00;;;16.90
15680;BMP180;15488;48.114;11.532;2022-10-13T04:20:36;95866.00;;;16.90
15680;BMP180;15488;48.114;11.532;2022-10-13T04:23:03;95868.00;;;16.90
15680;BMP180;15488;48.114;11.532;2022-10-13T04:25:34;95871.00;;;16.90
15680;BMP180;15488;48.114;11.532;2022-10-13T04:28:01;95869.00;;;16.90
15680;BMP180;15488;48.114;11.532;2022-10-13T04:30:29;95873.00;;;16.90
15680;BMP180;15488;48.114;11.532;2022-10-13T04:32:56;95876.00;;;17.00
15680;BMP180;15488;48.114;11.532;2022-10-13T04:35:25;95868.00;;;17.00
15680;BMP180;15488;48.114;11.532;2022-10-13T04:37:53;95861.00;;;17.00
15680;BMP180;15488;48.114;11.532;2022-10-13T04:40:22;95860.00;;;17.00
15680;BMP180;15488;48.114;11.532;2022-10-13T04:42:50;95851.00;;;17.00
15680;BMP180;15488;48.114;11.532;2022-10-13T04:45:17;95856.00;;;17.00
15680;BMP180;15488;48.114;11.532;2022-10-13T04:47:45;95855.00;;;17.00
15680;BMP180;15488;48.114;11.532;2022-10-13T04:50:12;95857.00;;;17.00
15680;BMP180;15488;48.114;11.532;2022-10-13T04:52:41;95858.00;;;17.10
15680;BMP180;15488;48.114;11.532;2022-10-13T04:55:09;95855.00;;;17.10
15680;BMP180;15488;48.114;11.532;2022-10-13T04:57:36;95857.00;;;17.10
15680;BMP180;15488;48.114;11.532;2022-10-13T05:00:05;95795.00;;;17.10
15680;BMP180;15488;48.114;11.532;2022-10-13T05:02:34;95854.00;;;17.20
15680;BMP180;15488;48.114;11.532;2022-10-13T05:05:01;95851.00;;;17.20
15680;BMP180;15488;48.114;11.532;2022-10-13T05:07:30;95849.00;;;17.20
15680;BMP180;15488;48.114;11.532;2022-10-13T05:09:58;95852.00;;;17.40
15680;BMP180;15488;48.114;11.532;2022-10-13T05:12:26;95853.00;;;17.30
15680;BMP180;15488;48.114;11.532;2022-10-13T05:14:53;95853.00;;;17.30
15680;BMP180;15488;48.114;11.532;2022-10-13T05:17:22;95852.00;;;17.40
15680;BMP180;15488;48.114;11.532;2022-10-13T05:19:49;95855.00;;;17.40
15680;BMP180;15488;48.114;11.532;2022-10-13T05:22:17;95845.00;;;17.40
15680;BMP180;15488;48.114;11.532;2022-10-13T05:24:45;95858.00;;;17.50
15680;BMP180;15488;48.114;11.532;2022-10-13T05:27:14;95847.00;;;17.50
15680;BMP180;15488;48.114;11.532;2022-10-13T05:29:41;95854.00;;;17.50
15680;BMP180;15488;48.114;11.532;2022-10-13T05:32:09;95853.00;;;17.60
15680;BMP180;15488;48.114;11.532;2022-10-13T05:34:36;95851.00;;;17.60
15680;BMP180;15488;48.114;11.532;2022-10-13T05:37:04;95855.00;;;17.60
15680;BMP180;15488;48.114;11.532;2022-10-13T05:39:31;95856.00;;;17.70
15680;BMP180;15488;48.114;11.532;2022-10-13T05:41:59;95852.00;;;17.70
15680;BMP180;15488;48.114;11.532;2022-10-13T05:44:28;95851.00;;;17.70
15680;BMP180;15488;48.114;11.532;2022-10-13T05:46:55;95851.00;;;17.80
15680;BMP180;15488;48.114;11.532;2022-10-13T05:49:23;95850.00;;;17.80
15680;BMP180;15488;48.114;11.532;2022-10-13T05:51:52;95853.00;;;17.80
15680;BMP180;15488;48.114;11.532;2022-10-13T05:54:24;95851.00;;;17.90
15680;BMP180;15488;48.114;11.532;2022-10-13T05:56:58;95851.00;;;17.90
15680;BMP180;15488;48.114;11.532;2022-10-13T05:59:31;95851.00;;;18.00
15680;BMP180;15488;48.114;11.532;2022-10-13T06:02:01;95849.00;;;18.00
15680;BMP180;15488;48.114;11.532;2022-10-13T06:04:33;95852.00;;;18.00
15680;BMP180;15488;48.114;11.532;2022-10-13T06:07:01;95851.00;;;18.10
15680;BMP180;15488;48.114;11.532;2022-10-13T06:09:33;95843.00;;;18.20
15680;BMP180;15488;48.114;11.532;2022-10-13T06:12:01;95846.00;;;18.10
15680;BMP180;15488;48.114;11.532;2022-10-13T06:14:30;95845.00;;;18.10
15680;BMP180;15488;48.114;11.532;2022-10-13T06:16:57;95851.00;;;18.20
15680;BMP180;15488;48.114;11.532;2022-10-13T06:19:25;95846.00;;;18.20
15680;BMP180;15488;48.114;11.532;2022-10-13T06:21:52;95846.00;;;18.20
15680;BMP180;15488;48.114;11.532;2022-10-13T06:24:20;95842.00;;;18.30
15680;BMP180;15488;48.114;11.532;2022-10-13T06:26:47;95846.00;;;18.30
15680;BMP180;15488;48.114;11.532;2022-10-13T06:29:15;95854.00;;;18.40
15680;BMP180;15488;48.114;11.532;2022-10-13T06:31:44;95844.00;;;18.40
15680;BMP180;15488;48.114;11.532;2022-10-13T06:34:11;95843.00;;;18.40
15680;BMP180;15488;48.114;11.532;2022-10-13T06:36:38;95855.00;;;18.50
15680;BMP180;15488;48.114;11.532;2022-10-13T06:39:07;95853.00;;;18.50
15680;BMP180;15488;48.114;11.532;2022-10-13T06:41:35;95852.00;;;18.50
15680;BMP180;15488;48.114;11.532;2022-10-13T06:44:03;95849.00;;;18.50
15680;BMP180;15488;48.114;11.532;2022-10-13T06:46:31;95854.00;;;18.60
15680;BMP180;15488;48.114;11.532;2022-10-13T06:48:59;95849.00;;;18.60
15680;BMP180;15488;48.114;11.532;2022-10-13T06:51:27;95849.00;;;18.70
15680;BMP180;15488;48.114;11.532;2022-10-13T06:53:55;95850.00;;;18.70
15680;BMP180;15488;48.114;11.532;2022-10-13T06:56:22;95851.00;;;18.70
15680;BMP180;15488;48.114;11.532;2022-10-13T06:58:50;95850.00;;;18.70
15680;BMP180;15488;48.114;11.532;2022-10-13T07:01:18;95852.00;;;18.80
15680;BMP180;15488;48.114;11.532;2022-10-13T07:03:48;95856.00;;;18.70
15680;BMP180;15488;48.114;11.532;2022-10-13T07:06:17;95850.00;;;18.80
15680;BMP180;15488;48.114;11.532;2022-10-13T07:08:44;95851.00;;;18.80
15680;BMP180;15488;48.114;11.532;2022-10-13T07:11:13;95857.00;;;18.90
15680;BMP180;15488;48.114;11.532;2022-10-13T07:13:41;95850.00;;;18.90
15680;BMP180;15488;48.114;11.532;2022-10-13T07:16:09;95856.00;;;18.90
15680;BMP180;15488;48.114;11.532;2022-10-13T07:18:37;95855.00;;;18.90
15680;BMP180;15488;48.114;11.532;2022-10-13T07:21:04;95853.00;;;18.90
15680;BMP180;15488;48.114;11.532;2022-10-13T07:23:34;95857.00;;;19.00
15680;BMP180;15488;48.114;11.532;2022-10-13T07:26:04;95854.00;;;19.00
15680;BMP180;15488;48.114;11.532;2022-10-13T07:28:32;95849.00;;;19.00
15680;BMP180;15488;48.114;11.532;2022-10-13T07:31:05;95849.00;;;19.10
15680;BMP180;15488;48.114;11.532;2022-10-13T07:33:33;95848.00;;;19.00
15680;BMP180;15488;48.114;11.532;2022-10-13T07:36:01;95847.00;;;19.00
15680;BMP180;15488;48.114;11.532;2022-10-13T07:38:28;95848.00;;;19.00
15680;BMP180;15488;48.114;11.532;2022-10-13T07:40:59;95842.00;;;19.00
15680;BMP180;15488;48.114;11.532;2022-10-13T07:43:27;95842.00;;;19.00
15680;BMP180;15488;48.114;11.532;2022-10-13T07:45:56;95847.00;;;19.00
15680;BMP180;15488;48.114;11.532;2022-10-13T07:48:24;95847.00;;;19.10
15680;BMP180;15488;48.114;11.532;2022-10-13T07:50:51;95845.00;;;19.10
15680;BMP180;15488;48.114;11.532;2022-10-13T07:53:19;95839.00;;;19.10
15680;BMP180;15488;48.114;11.532;2022-10-13T07:55:46;95838.00;;;19.20
15680;BMP180;15488;48.114;11.532;2022-10-13T07:58:15;95833.00;;;19.20
15680;BMP180;15488;48.114;11.532;2022-10-13T08:00:43;95831.00;;;19.20
15680;BMP180;15488;48.114;11.532;2022-10-13T08:03:11;95836.00;;;19.20
15680;BMP180;15488;48.114;11.532;2022-10-13T08:05:38;95837.00;;;19.20
15680;BMP180;15488;48.114;11.532;2022-10-13T08:08:06;95833.00;;;19.20
15680;BMP180;15488;48.114;11.532;2022-10-13T08:10:33;95830.00;;;19.20
15680;BMP180;15488;48.114;11.532;2022-10-13T08:13:01;95829.00;;;19.20
15680;BMP180;15488;48.114;11.532;2022-10-13T08:15:31;95826.00;;;19.30
15680;BMP180;15488;48.114;11.532;2022-10-13T08:17:58;95827.00;;;19.30
15680;BMP180;15488;48.114;11.532;2022-10-13T08:20:26;95823.00;;;19.40
15680;BMP180;15488;48.114;11.532;2022-10-13T08:22:55;95829.00;;;19.40
15680;BMP180;15488;48.114;11.532;2022-10-13T08:25:23;95835.00;;;19.40
15680;BMP180;15488;48.114;11.532;2022-10-13T08:27:52;95829.00;;;19.40
15680;BMP180;15488;48.114;11.532;2022-10-13T08:30:19;95835.00;;;19.40
15680;BMP180;15488;48.114;11.532;2022-10-13T08:32:48;95844.00;;;19.40
15680;BMP180;15488;48.114;11.532;2022-10-13T08:35:16;95846.00;;;19.40
15680;BMP180;15488;48.114;11.532;2022-10-13T08:37:43;95841.00;;;19.40
15680;BMP180;15488;48.114;11.532;2022-10-13T08:40:13;95840.00;;;19.50
15680;BMP180;15488;48.114;11.532;2022-10-13T08:42:43;95834.00;;;19.50
15680;BMP180;15488;48.114;11.532;2022-10-13T08:45:17;95834.00;;;19.50
15680;BMP180;15488;48.114;11.532;2022-10-13T08:47:50;95842.00;;;19.60
15680;BMP180;15488;48.114;11.532;2022-10-13T08:50:23;95842.00;;;19.60
15680;BMP180;15488;48.114;11.532;2022-10-13T08:52:54;95838.00;;;19.70
15680;BMP180;15488;48.114;11.532;2022-10-13T08:55:26;95833.00;;;19.70
15680;BMP180;15488;48.114;11.532;2022-10-13T08:57:56;95833.00;;;19.80
15680;BMP180;15488;48.114;11.532;2022-10-13T09:00:24;95827.00;;;19.90
15680;BMP180;15488;48.114;11.532;2022-10-13T09:02:53;95821.00;;;19.90
15680;BMP180;15488;48.114;11.532;2022-10-13T09:05:35;95827.00;;;20.00
15680;BMP180;15488;48.114;11.532;2022-10-13T09:08:07;95828.00;;;20.00
15680;BMP180;15488;48.114;11.532;2022-10-13T09:10:46;95833.00;;;20.10
15680;BMP180;15488;48.114;11.532;2022-10-13T09:13:14;95831.00;;;20.10
15680;BMP180;15488;48.114;11.532;2022-10-13T09:15:45;95835.00;;;20.10
15680;BMP180;15488;48.114;11.532;2022-10-13T09:18:14;95827.00;;;20.20
15680;BMP180;15488;48.114;11.532;2022-10-13T09:20:42;95827.00;;;20.20
15680;BMP180;15488;48.114;11.532;2022-10-13T09:23:17;95825.00;;;20.30
15680;BMP180;15488;48.114;11.532;2022-10-13T09:25:47;95821.00;;;20.30
15680;BMP180;15488;48.114;11.532;2022-10-13T09:28:19;95810.00;;;20.30
15680;BMP180;15488;48.114;11.532;2022-10-13T09:30:48;95809.00;;;20.40
15680;BMP180;15488;48.114;11.532;2022-10-13T09:33:25;95808.00;;;20.50
15680;BMP180;15488;48.114;11.532;2022-10-13T09:36:10;95811.00;;;20.50
15680;BMP180;15488;48.114;11.532;2022-10-13T09:38:38;95802.00;;;20.60
15680;BMP180;15488;48.114;11.532;2022-10-13T09:41:12;95814.00;;;20.60
15680;BMP180;15488;48.114;11.532;2022-10-13T09:43:42;95817.00;;;20.60
15680;BMP180;15488;48.114;11.532;2022-10-13T09:46:25;95809.00;;;20.60
15680;BMP180;15488;48.114;11.532;2022-10-13T09:48:55;95803.00;;;20.70
15680;BMP180;15488;48.114;11.532;2022-10-13T09:51:33;95800.00;;;20.70
15680;BMP180;15488;48.114;11.532;2022-10-13T09:54:01;95799.00;;;20.80
15680;BMP180;15488;48.114;11.532;2022-10-13T09:56:35;95797.00;;;20.80
15680;BMP180;15488;48.114;11.532;2022-10-13T09:59:13;95799.00;;;20.90
15680;BMP180;15488;48.114;11.532;2022-10-13T10:04:24;95807.00;;;21.00
15680;BMP180;15488;48.114;11.532;2022-10-13T10:06:56;95802.00;;;21.10
15680;BMP180;15488;48.114;11.532;2022-10-13T10:09:32;95794.00;;;21.10
15680;BMP180;15488;48.114;11.532;2022-10-13T10:12:02;95803.00;;;21.20
15680;BMP180;15488;48.114;11.532;2022-10-13T10:14:31;95803.00;;;21.20
15680;BMP180;15488;48.114;11.532;2022-10-13T10:17:03;95812.00;;;21.30
15680;BMP180;15488;48.114;11.532;2022-10-13T10:19:46;95806.00;;;21.30
15680;BMP180;15488;48.114;11.532;2022-10-13T10:22:23;95799.00;;;21.40
15680;BMP180;15488;48.114;11.532;2022-10-13T10:24:54;95801.00;;;21.40
15680;BMP180;15488;48.114;11.532;2022-10-13T10:27:29;95799.00;;;21.40
15680;BMP180;15488;48.114;11.532;2022-10-13T10:30:02;95790.00;;;21.40
15680;BMP180;15488;48.114;11.532;2022-10-13T10:32:39;95798.00;;;21.50
15680;BMP180;15488;48.114;11.532;2022-10-13T10:35:17;95792.00;;;21.50
15680;BMP180;15488;48.114;11.532;2022-10-13T10:38:01;95789.00;;;21.60
15680;BMP180;15488;48.114;11.532;2022-10-13T10:40:37;95797.00;;;21.60
15680;BMP180;15488;48.114;11.532;2022-10-13T10:46:14;95790.00;;;21.70
15680;BMP180;15488;48.114;11.532;2022-10-13T10:48:44;95790.00;;;21.70
15680;BMP180;15488;48.114;11.532;2022-10-13T10:51:14;95777.00;;;21.70
15680;BMP180;15488;48.114;11.532;2022-10-13T10:53:53;95779.00;;;21.70
15680;BMP180;15488;48.114;11.532;2022-10-13T10:56:27;95773.00;;;21.80
15680;BMP180;15488;48.114;11.532;2022-10-13T10:59:08;95767.00;;;21.90
15680;BMP180;15488;48.114;11.532;2022-10-13T11:01:43;95763.00;;;22.00
15680;BMP180;15488;48.114;11.532;2022-10-13T11:04:34;95761.00;;;22.00
15680;BMP180;15488;48.114;11.532;2022-10-13T11:07:07;95761.00;;;22.10
15680;BMP180;15488;48.114;11.532;2022-10-13T11:10:03;95757.00;;;22.10
15680;BMP180;15488;48.114;11.532;2022-10-13T11:12:48;95752.00;;;22.20
15680;BMP180;15488;48.114;11.532;2022-10-13T11:15:41;95749.00;;;22.30
15680;BMP180;15488;48.114;11.532;2022-10-13T11:22:12;95736.00;;;22.40
15680;BMP180;15488;48.114;11.532;2022-10-13T11:24:58;95729.00;;;22.50
15680;BMP180;15488;48.114;11.532;2022-10-13T11:27:40;95724.00;;;22.60
15680;BMP180;15488;48.114;11.532;2022-10-13T11:30:39;95733.00;;;22.70
15680;BMP180;15488;48.114;11.532;2022-10-13T11:33:34;95723.00;;;22.80
15680;BMP180;15488;48.114;11.532;2022-10-13T11:36:31;95722.00;;;22.90
15680;BMP180;15488;48.114;11.532;2022-10-13T11:39:14;95721.00;;;22.90
15680;BMP180;15488;48.114;11.532;2022-10-13T11:41:53;95716.00;;;23.00
15680;BMP180;15488;48.114;11.532;2022-10-13T11:44:31;95710.00;;;23.10
15680;BMP180;15488;48.114;11.532;2022-10-13T11:47:05;95715.00;;;23.20
15680;BMP180;15488;48.114;11.532;2022-10-13T11:49:46;95710.00;;;23.30
15680;BMP180;15488;48.114;11.532;2022-10-13T11:52:52;95710.00;;;23.50
15680;BMP180;15488;48.114;11.532;2022-10-13T11:55:33;95717.00;;;23.50
15680;BMP180;15488;48.114;11.532;2022-10-13T11:58:13;95702.00;;;23.60
15680;BMP180;15488;48.114;11.532;2022-10-13T12:00:50;95696.00;;;23.60
15680;BMP180;15488;48.114;11.532;2022-10-13T12:03:22;95686.00;;;23.70
15680;BMP180;15488;48.114;11.532;2022-10-13T12:05:50;95685.00;;;23.70
15680;BMP180;15488;48.114;11.532;2022-10-13T12:08:18;95686.00;;;23.70
15680;BMP180;15488;48.114;11.532;2022-10-13T12:10:51;95686.00;;;23.70
15680;BMP180;15488;48.114;11.532;2022-10-13T12:13:23;95677.00;;;23.80
15680;BMP180;15488;48.114;11.532;2022-10-13T12:15:57;95675.00;;;23.80
15680;BMP180;15488;48.114;11.532;2022-10-13T12:18:28;95670.00;;;23.80
15680;BMP180;15488;48.114;11.532;2022-10-13T12:21:01;95668.00;;;23.80
15680;BMP180;15488;48.114;11.532;2022-10-13T12:23:30;95658.00;;;23.90
15680;BMP180;15488;48.114;11.532;2022-10-13T12:26:00;95664.00;;;23.90
15680;BMP180;15488;48.114;11.532;2022-10-13T12:28:29;95670.00;;;23.90
15680;BMP180;15488;48.114;11.532;2022-10-13T12:30:58;95664.00;;;24.00
15680;BMP180;15488;48.114;11.532;2022-10-13T12:33:29;95656.00;;;24.00
15680;BMP180;15488;48.114;11.532;2022-10-13T12:36:11;95661.00;;;24.10
15680;BMP180;15488;48.114;11.532;2022-10-13T12:38:42;95586.00;;;24.10
15680;BMP180;15488;48.114;11.532;2022-10-13T12:41:15;95663.00;;;24.20
15680;BMP180;15488;48.114;11.532;2022-10-13T12:43:44;95669.00;;;24.20
15680;BMP180;15488;48.114;11.532;2022-10-13T12:46:12;95658.00;;;24.30
15680;BMP180;15488;48.114;11.532;2022-10-13T12:49:03;95658.00;;;24.30
15680;BMP180;15488;48.114;11.532;2022-10-13T12:51:31;95655.00;;;24.30
15680;BMP180;15488;48.114;11.532;2022-10-13T12:54:04;95647.00;;;24.30
15680;BMP180;15488;48.114;11.532;2022-10-13T12:56:34;95644.00;;;24.30
15680;BMP180;15488;48.114;11.532;2022-10-13T12:59:01;95647.00;;;24.30
15680;BMP180;15488;48.114;11.532;2022-10-13T13:01:31;95649.00;;;24.30
15680;BMP180;15488;48.114;11.532;2022-10-13T13:04:01;95639.00;;;24.30
15680;BMP180;15488;48.114;11.532;2022-10-13T13:06:36;95639.00;;;24.30
15680;BMP180;15488;48.114;11.532;2022-10-13T13:09:29;95634.00;;;24.50
15680;BMP180;15488;48.114;11.532;2022-10-13T13:12:25;95625.00;;;24.60
15680;BMP180;15488;48.114;11.532;2022-10-13T13:14:57;95632.00;;;24.70
15680;BMP180;15488;48.114;11.532;2022-10-13T13:17:30;95629.00;;;24.90
15680;BMP180;15488;48.114;11.532;2022-10-13T13:19:58;95628.00;;;25.10
15680;BMP180;15488;48.114;11.532;2022-10-13T13:22:27;95627.00;;;25.30
15680;BMP180;15488;48.114;11.532;2022-10-13T13:24:54;95632.00;;;25.40
15680;BMP180;15488;48.114;11.532;2022-10-13T13:27:25;95630.00;;;25.60
15680;BMP180;15488;48.114;11.532;2022-10-13T13:29:54;95637.00;;;25.70
15680;BMP180;15488;48.114;11.532;2022-10-13T13:32:23;95627.00;;;25.80
15680;BMP180;15488;48.114;11.532;2022-10-13T13:34:51;95626.00;;;25.80
15680;BMP180;15488;48.114;11.532;2022-10-13T13:37:30;95619.00;;;25.90
15680;BMP180;15488;48.114;11.532;2022-10-13T13:39:58;95620.00;;;25.90
15680;BMP180;15488;48.114;11.532;2022-10-13T13:42:28;95610.00;;;25.90
15680;BMP180;15488;48.114;11.532;2022-10-13T13:44:56;95613.00;;;25.90
15680;BMP180;15488;48.114;11.532;2022-10-13T13:47:25;95607.00;;;25.90
15680;BMP180;15488;48.114;11.532;2022-10-13T13:49:54;95608.00;;;25.90
15680;BMP180;15488;48.114;11.532;2022-10-13T13:52:23;95611.00;;;26.00
15680;BMP180;15488;48.114;11.532;2022-10-13T13:54:51;95611.00;;;25.90
15680;BMP180;15488;48.114;11.532;2022-10-13T13:57:21;95611.00;;;25.90
15680;BMP180;15488;48.114;11.532;2022-10-13T13:59:50;95609.00;;;25.90
15680;BMP180;15488;48.114;11.532;2022-10-13T14:02:20;95612.00;;;25.90
15680;BMP180;15488;48.114;11.532;2022-10-13T14:04:47;95610.00;;;25.90
15680;BMP180;15488;48.114;11.532;2022-10-13T14:07:16;95604.00;;;25.80
15680;BMP180;15488;48.114;11.532;2022-10-13T14:09:44;95623.00;;;25.80
15680;BMP180;15488;48.114;11.532;2022-10-13T14:12:12;95602.00;;;25.80
15680;BMP180;15488;48.114;11.532;2022-10-13T14:14:39;95599.00;;;25.80
15680;BMP180;15488;48.114;11.532;2022-10-13T14:17:08;95596.00;;;25.70
15680;BMP180;15488;48.114;11.532;2022-10-13T14:19:35;95601.00;;;25.70
15680;BMP180;15488;48.114;11.532;2022-10-13T14:22:03;95595.00;;;25.60
15680;BMP180;15488;48.114;11.532;2022-10-13T14:24:30;95600.00;;;25.60
15680;BMP180;15488;48.114;11.532;2022-10-13T14:26:58;95593.00;;;25.50
15680;BMP180;15488;48.114;11.532;2022-10-13T14:29:26;95598.00;;;25.50
15680;BMP180;15488;48.114;11.532;2022-10-13T14:31:53;95597.00;;;25.40